Aviation Digital Data Service (ADDS)

Output produced by METARs form (1943 UTC 25 March 2017)
found at http://www.aviationweather.gov/adds/metars/
 
FMCH 251800Z 11004KT 9999 FEW020 26/24 Q1011 NOSIG
TAF FMCH 251700Z 2518/2624 11003KT 9999 FEW020 
     BECMG 2605/2607 20012KT 
     BECMG 2616/2618 10003KT